LEVC/VLC METAR and TAF weather

Enter ICAO airport designator
Station Type Date Time Source
LEVC METAR 2019/06/18 15:00 UTC NOAA

LEVC 181500Z 06010KT 020V100 9999 FEW030 27/17 Q1013 NOSIG


Station Type Date Time Source
LEVC Decoded METAR 2019/06/18 15:00 UTC NOAA

Valencia / Aeropuerto, Spain (LEVC) 39-30N 000-28W 62M
Jun 18, 2019 - 11:00 AM EDT / 2019.06.18 1500 UTC
Wind: from the ENE (060 degrees) at 12 MPH (10 KT) (direction variable):0
Visibility: greater than 7 mile(s):0
Sky conditions: mostly clear
Temperature: 80 F (27 C)
Dew Point: 62 F (17 C)
Relative Humidity: 54%
Pressure (altimeter): 29.91 in. Hg (1013 hPa)
ob: LEVC 181500Z 06010KT 020V100 9999 FEW030 27/17 Q1013 NOSIG
cycle: 15

Station Type Date Time Source
LEVC TAF 2019/06/18 12:27 UTC NOAA

TAF LEVC 181100Z 1812/1912 11010KT 9999 FEW030 TX30/1812Z TN16/1906Z
BECMG 1817/1819 05006KT
BECMG 1823/1901 28005KT
BECMG 1907/1909 11010KT

Example: see airport list